This is the latest recevied weather packets stored in our database for station/object N9ALD. If no packets are shown the sender has not sent any weather packets the latest 10 day(s).
| Time | Temp. | Humidity | Pressure | Rain* | Wind** | Luminosity | Snow |
|---|---|---|---|---|---|---|---|
| 1777515865 | 10° C | 70% | 1011.8 hPa | 0 mm | - | 0 W/m² | - |
| 1777515561 | 10° C | 69% | 1011.7 hPa | 0 mm | - | 0 W/m² | - |
| 1777515259 | 10° C | 66% | 1011.6 hPa | 0 mm | - | 0 W/m² | - |
| 1777514955 | 10° C | 67% | 1011.5 hPa | 0 mm | - | 0 W/m² | - |
| 1777514651 | 10.56° C | 67% | 1011.5 hPa | 0 mm | - | 0 W/m² | - |
| 1777514348 | 10.56° C | 65% | 1011.4 hPa | 0 mm | - | 0 W/m² | - |
| 1777514045 | 11.11° C | 63% | 1011.3 hPa | 0 mm | - | 0 W/m² | - |
| 1777513742 | 11.11° C | 63% | 1011.2 hPa | 0 mm | - | 0 W/m² | - |
| 1777513439 | 11.11° C | 62% | 1011.2 hPa | 0 mm | - | 0 W/m² | - |
| 1777513136 | 11.67° C | 61% | 1011.1 hPa | 0 mm | - | 0 W/m² | - |
| 1777512831 | 11.67° C | 61% | 1010.9 hPa | 0 mm | - | 0 W/m² | - |
| 1777511922 | 11.67° C | 60% | 1010.8 hPa | 0 mm | - | 0 W/m² | - |
| 1777511620 | 11.67° C | 64% | 1010.6 hPa | 0 mm | - | 0 W/m² | - |
| 1777509193 | 12.78° C | 59% | 1010.4 hPa | 0 mm | - | 4 W/m² | - |
| 1777507677 | 13.33° C | 57% | 1010.4 hPa | 0 mm | - | 20 W/m² | - |
| 1777506465 | 13.89° C | 54% | 1010.2 hPa | 0 mm | - | 44 W/m² | - |
| 1777506161 | 14.44° C | 54% | 1010.2 hPa | 0 mm | - | 52 W/m² | - |
| 1777505857 | 14.44° C | 59% | 1010 hPa | 0 mm | - | 60 W/m² | - |
| 1777504041 | 15° C | 59% | 1010 hPa | 0 mm | - | 161 W/m² | - |
| 1777501919 | 15° C | 57% | 1009.9 hPa | 0 mm | - | 154 W/m² | - |
| 1777501616 | 15.56° C | 60% | 1010 hPa | 0 mm | - | 102 W/m² | - |
| 1777501011 | 15.56° C | 58% | 1009.7 hPa | 0 mm | - | 217 W/m² | - |
| 1777500709 | 15.56° C | 57% | 1009.5 hPa | 0 mm | - | 221 W/m² | - |
| 1777500405 | 15.56° C | 59% | 1009.7 hPa | 0 mm | - | 81 W/m² | - |
| 1777498586 | 16.67° C | 54% | 1009.4 hPa | 0 mm | - | 120 W/m² | - |
* Rain latest hour (hover to see other rain measurements)
** Current wind speed in m/s (hover to see current wind gust speed)